createdAt,value
2023-05-23T00:01:55.678Z,101071.88
2023-05-23T00:04:23.228Z,101072.41
2023-05-23T00:06:51.235Z,101066.00
2023-05-23T00:09:18.434Z,101074.44
2023-05-23T00:11:46.079Z,101073.41
2023-05-23T00:14:17.086Z,101070.03
2023-05-23T00:16:45.765Z,101073.00
2023-05-23T00:19:15.361Z,101065.22
2023-05-23T00:21:52.612Z,101066.41
2023-05-23T00:24:20.599Z,101058.44
2023-05-23T00:26:47.819Z,101053.91
2023-05-23T00:29:18.583Z,101057.72
2023-05-23T00:31:46.919Z,101060.75
2023-05-23T00:34:18.238Z,101060.75
2023-05-23T00:36:48.166Z,101055.34
2023-05-23T00:39:20.158Z,101064.44
2023-05-23T00:41:51.803Z,101068.13
2023-05-23T00:44:20.445Z,101070.16
2023-05-23T00:46:52.474Z,101066.16
2023-05-23T00:49:22.487Z,101061.31
2023-05-23T00:51:50.272Z,101063.59
2023-05-23T00:54:37.066Z,101053.97
2023-05-23T00:57:04.662Z,101050.28
2023-05-23T00:59:32.494Z,101049.13
2023-05-23T01:02:01.128Z,101044.06
2023-05-23T01:04:28.667Z,101050.69
2023-05-23T01:06:56.667Z,101046.03
2023-05-23T01:09:25.978Z,101050.44
2023-05-23T01:12:17.334Z,101056.16
2023-05-23T01:15:18.083Z,101055.44
2023-05-23T01:17:55.536Z,101055.75
2023-05-23T01:20:26.665Z,101056.44
2023-05-23T01:23:02.478Z,101052.91
2023-05-23T01:25:29.552Z,101050.38
2023-05-23T01:28:02.196Z,101056.00
2023-05-23T01:30:32.956Z,101045.66
2023-05-23T01:33:03.523Z,101042.94
2023-05-23T01:35:31.862Z,101042.66
2023-05-23T01:37:58.848Z,101050.66
2023-05-23T01:40:26.834Z,101052.69
2023-05-23T01:42:57.529Z,101043.88
2023-05-23T01:45:27.778Z,101050.97
2023-05-23T01:47:56.477Z,101041.31
2023-05-23T01:50:24.768Z,101053.59
2023-05-23T01:52:52.566Z,101050.19
2023-05-23T01:55:24.546Z,101043.34
2023-05-23T01:57:52.765Z,101036.78
2023-05-23T02:00:19.984Z,101040.50
2023-05-23T02:02:47.909Z,101050.13
2023-05-23T02:05:17.379Z,101046.56
2023-05-23T02:07:45.636Z,101050.66
2023-05-23T02:10:12.614Z,101050.50
2023-05-23T02:12:39.611Z,101051.81
2023-05-23T02:15:07.890Z,101058.13
2023-05-23T02:17:35.075Z,101055.38
2023-05-23T02:20:02.240Z,101059.19
2023-05-23T02:22:29.158Z,101054.66
2023-05-23T02:24:56.174Z,101049.97
2023-05-23T02:27:23.417Z,101053.91
2023-05-23T02:29:50.576Z,101048.66
2023-05-23T02:32:17.508Z,101050.38
2023-05-23T02:34:46.858Z,101048.66
2023-05-23T02:37:14.969Z,101053.66
2023-05-23T02:39:43.325Z,101055.38
2023-05-23T02:42:10.425Z,101054.97
2023-05-23T02:44:37.586Z,101050.44
2023-05-23T02:47:04.713Z,101041.31
2023-05-23T02:49:33.780Z,101040.09
2023-05-23T02:52:01.041Z,101040.78
2023-05-23T02:54:28.060Z,101036.69
2023-05-23T02:56:56.012Z,101036.53
2023-05-23T02:59:23.327Z,101038.13
2023-05-23T03:01:50.439Z,101029.81
2023-05-23T03:04:18.541Z,101035.34
2023-05-23T03:06:45.689Z,101034.09
2023-05-23T03:09:12.751Z,101033.00
2023-05-23T03:11:40.564Z,101033.00
2023-05-23T03:14:07.606Z,101021.53
2023-05-23T03:16:34.710Z,101024.22
2023-05-23T03:19:02.444Z,101021.97
2023-05-23T03:21:29.945Z,101020.25
2023-05-23T03:23:57.079Z,101021.69
2023-05-23T03:26:24.113Z,101021.44
2023-05-23T03:28:51.470Z,101026.81
2023-05-23T03:31:19.861Z,101027.09
2023-05-23T03:33:46.929Z,101028.66
2023-05-23T03:36:13.986Z,101031.50
2023-05-23T03:38:42.373Z,101034.50
2023-05-23T03:41:09.337Z,101022.31
2023-05-23T03:43:36.456Z,101012.22
2023-05-23T03:46:03.987Z,101016.22
2023-05-23T03:48:31.228Z,101014.09
2023-05-23T03:50:58.196Z,101019.22
2023-05-23T03:53:25.535Z,101013.25
2023-05-23T03:55:54.170Z,101021.50
2023-05-23T03:58:21.696Z,101014.69
2023-05-23T04:00:53.351Z,101018.53
2023-05-23T04:03:21.662Z,101019.84
2023-05-23T04:05:50.408Z,101010.91
2023-05-23T04:08:17.946Z,101008.34
2023-05-23T04:10:44.884Z,101011.63
2023-05-23T04:13:11.946Z,101008.06
2023-05-23T04:15:40.074Z,101009.06
2023-05-23T04:18:10.423Z,101009.06
2023-05-23T04:20:38.452Z,101015.56
2023-05-23T04:23:05.679Z,101015.34
2023-05-23T04:25:36.359Z,101011.91
2023-05-23T04:28:14.258Z,101012.50
2023-05-23T04:30:42.823Z,101013.97
2023-05-23T04:33:10.515Z,101006.88
2023-05-23T04:35:40.894Z,101007.72
2023-05-23T04:38:08.669Z,101000.63
2023-05-23T04:40:35.912Z,100995.53
2023-05-23T04:43:26.751Z,100997.50
2023-05-23T04:45:57.935Z,100985.88
2023-05-23T04:48:36.423Z,100986.19
2023-05-23T04:51:08.682Z,100991.56
2023-05-23T04:53:41.696Z,100996.38
2023-05-23T04:56:10.533Z,100993.00
2023-05-23T04:58:40.838Z,100991.28
2023-05-23T05:01:09.976Z,100985.59
2023-05-23T05:03:37.185Z,100983.63
2023-05-23T05:06:04.452Z,100979.94
2023-05-23T05:08:31.607Z,100973.41
2023-05-23T05:10:59.062Z,100981.50
2023-05-23T05:13:26.178Z,100984.19
2023-05-23T05:15:55.411Z,100978.25
2023-05-23T05:18:23.889Z,100979.09
2023-05-23T05:20:51.221Z,100975.13
2023-05-23T05:23:18.813Z,100991.25
2023-05-23T05:25:46.309Z,100989.28
2023-05-23T05:28:13.548Z,100995.06
2023-05-23T05:30:46.546Z,101007.38
2023-05-23T05:33:14.550Z,101002.28
2023-05-23T05:35:41.932Z,101003.66
2023-05-23T05:38:11.101Z,101008.06
2023-05-23T05:40:39.878Z,101015.84
2023-05-23T05:43:07.068Z,101015.41
2023-05-23T05:45:34.580Z,101019.50
2023-05-23T05:48:01.668Z,101021.66
2023-05-23T05:50:29.557Z,101008.72
2023-05-23T05:52:56.656Z,101008.13
2023-05-23T05:55:24.446Z,101011.53
2023-05-23T05:57:54.562Z,101021.69
2023-05-23T06:00:22.362Z,101023.66
2023-05-23T06:02:59.735Z,101025.59
2023-05-23T06:05:46.380Z,101033.56
2023-05-23T06:08:13.498Z,101026.72
2023-05-23T06:10:40.686Z,101026.72
2023-05-23T06:13:08.315Z,101025.41
2023-05-23T06:15:37.177Z,101027.81
2023-05-23T06:18:04.395Z,101015.03
2023-05-23T06:20:32.800Z,101016.72
2023-05-23T06:23:05.716Z,101015.03
2023-05-23T06:25:32.871Z,101016.41
2023-05-23T06:28:00.968Z,101013.72
2023-05-23T06:30:30.125Z,101008.19
2023-05-23T06:32:57.688Z,101014.97
2023-05-23T06:35:25.705Z,101015.09
2023-05-23T06:37:53.513Z,101017.50
2023-05-23T06:40:20.735Z,101014.50
2023-05-23T06:42:48.017Z,101031.38
2023-05-23T06:45:24.358Z,101019.97
2023-05-23T06:47:51.846Z,101026.09
2023-05-23T06:50:22.941Z,101027.47
2023-05-23T06:52:51.198Z,101019.06
2023-05-23T06:55:19.688Z,101023.59
2023-05-23T06:57:52.248Z,101022.75
2023-05-23T07:00:21.453Z,101027.00
2023-05-23T07:03:03.729Z,101029.56
2023-05-23T07:05:31.145Z,101036.63
2023-05-23T07:07:58.180Z,101038.66
2023-05-23T07:10:26.486Z,101049.13
2023-05-23T07:12:58.628Z,101043.19
2023-05-23T07:15:27.455Z,101042.34
2023-05-23T07:18:03.421Z,101037.28
2023-05-23T07:20:34.148Z,101039.56
2023-05-23T07:23:10.091Z,101037.88
2023-05-23T07:25:38.938Z,101045.97
2023-05-23T07:28:11.548Z,101040.97
2023-05-23T07:30:39.220Z,101035.25
2023-05-23T07:33:06.567Z,101036.94
2023-05-23T07:35:34.966Z,101025.84
2023-05-23T07:38:02.657Z,101032.94
2023-05-23T07:40:30.618Z,101020.63
2023-05-23T07:42:57.749Z,101020.44
2023-05-23T07:45:24.991Z,101015.75
2023-05-23T07:47:52.150Z,101010.78
2023-05-23T07:50:19.145Z,101011.63
2023-05-23T07:52:46.872Z,101001.38
2023-05-23T07:55:17.123Z,101000.75
2023-05-23T07:57:44.213Z,100995.03
2023-05-23T08:00:12.667Z,100989.03
2023-05-23T08:02:42.697Z,100992.41
2023-05-23T08:05:19.323Z,100993.94
2023-05-23T08:07:48.331Z,100992.94
2023-05-23T08:10:15.608Z,100998.47
2023-05-23T08:12:43.736Z,101002.53
2023-05-23T08:15:15.134Z,101004.66
2023-05-23T08:17:46.514Z,101009.13
2023-05-23T08:20:13.715Z,101018.28
2023-05-23T08:22:41.212Z,101015.22
2023-05-23T08:25:09.695Z,101010.81
2023-05-23T08:27:39.594Z,101014.53
2023-05-23T08:30:23.309Z,101014.19
2023-05-23T08:32:50.658Z,101019.59
2023-05-23T08:35:17.679Z,101016.50
2023-05-23T08:37:46.767Z,101016.38
2023-05-23T08:40:22.583Z,101017.25
2023-05-23T08:42:58.623Z,101018.78
2023-05-23T08:45:25.941Z,101027.47
2023-05-23T08:47:55.994Z,101025.13
2023-05-23T08:50:28.604Z,101019.94
2023-05-23T08:52:59.560Z,101014.28
2023-05-23T08:55:29.459Z,101016.34
2023-05-23T08:58:03.759Z,101009.75
2023-05-23T09:00:53.960Z,101014.16
2023-05-23T09:03:23.363Z,101012.66
2023-05-23T09:06:10.999Z,101019.09
2023-05-23T09:08:39.044Z,101018.94
2023-05-23T09:11:06.663Z,101023.50
2023-05-23T09:13:37.867Z,101027.53
2023-05-23T09:16:10.658Z,101034.97
2023-05-23T09:18:45.817Z,101031.53
2023-05-23T09:21:15.640Z,101035.59
2023-05-23T09:23:55.764Z,101032.50
2023-05-23T09:26:22.990Z,101047.44
2023-05-23T09:28:49.993Z,101044.38
2023-05-23T09:31:17.740Z,101041.91
2023-05-23T09:33:48.817Z,101040.00
2023-05-23T09:36:18.151Z,101041.19
2023-05-23T09:38:46.831Z,101042.53
2023-05-23T09:41:14.213Z,101036.59
2023-05-23T09:43:51.973Z,101043.38
2023-05-23T09:46:21.842Z,101035.22
2023-05-23T09:48:52.289Z,101046.75
2023-05-23T09:51:21.670Z,101047.25
2023-05-23T09:53:49.655Z,101041.97
2023-05-23T09:56:17.757Z,101046.94
2023-05-23T09:58:50.283Z,101036.97
2023-05-23T10:01:17.761Z,101037.44
2023-05-23T10:03:57.252Z,101045.78
2023-05-23T10:06:29.203Z,101048.84
2023-05-23T10:09:10.105Z,101033.59
2023-05-23T10:11:37.003Z,101031.91
2023-05-23T10:14:07.743Z,101027.81
2023-05-23T10:17:04.113Z,101024.41
2023-05-23T10:19:43.740Z,101026.44
2023-05-23T10:22:12.587Z,101026.59
2023-05-23T10:24:40.380Z,101034.25
2023-05-23T10:27:07.871Z,101033.53
2023-05-23T10:29:36.708Z,101021.22
2023-05-23T10:32:06.083Z,101021.19
2023-05-23T10:35:02.374Z,101022.19
2023-05-23T10:38:07.984Z,101022.72
2023-05-23T10:40:43.668Z,101028.38
2023-05-23T10:43:29.674Z,101024.47
2023-05-23T10:45:57.336Z,101029.06
2023-05-23T10:48:42.488Z,101033.66
2023-05-23T10:51:14.515Z,101018.88
2023-05-23T10:53:44.041Z,101021.78
2023-05-23T10:56:19.687Z,101019.75
2023-05-23T10:58:46.782Z,101024.84
2023-05-23T11:01:16.597Z,101021.13
2023-05-23T11:03:46.737Z,101027.91
2023-05-23T11:06:30.200Z,101021.81
2023-05-23T11:09:10.315Z,101006.38
2023-05-23T11:12:06.072Z,101011.31
2023-05-23T11:14:38.008Z,101007.25
2023-05-23T11:17:14.102Z,101013.00
2023-05-23T11:19:57.014Z,101030.28
2023-05-23T11:22:29.123Z,101028.94
2023-05-23T11:24:57.777Z,101019.09
2023-05-23T11:27:27.424Z,101018.41
2023-05-23T11:29:59.385Z,101011.63
2023-05-23T11:32:30.022Z,101002.00
2023-05-23T11:35:09.460Z,100998.09
2023-05-23T11:37:39.096Z,100998.44
2023-05-23T11:40:26.378Z,100994.00
2023-05-23T11:42:54.770Z,101004.53
2023-05-23T11:45:23.216Z,101016.69
2023-05-23T11:47:50.701Z,100997.09
2023-05-23T11:50:17.950Z,101006.56
2023-05-23T11:52:52.206Z,101013.31
2023-05-23T11:55:21.586Z,101023.13
2023-05-23T11:57:49.611Z,101015.19
2023-05-23T12:00:16.980Z,101018.72
2023-05-23T12:02:45.752Z,101016.22
2023-05-23T12:05:14.647Z,101002.81
2023-05-23T12:07:43.035Z,101010.28
2023-05-23T12:10:11.884Z,101005.56
2023-05-23T12:12:41.479Z,100998.28
2023-05-23T12:15:10.034Z,101005.38
2023-05-23T12:17:38.565Z,101011.31
2023-05-23T12:20:09.406Z,101001.31
2023-05-23T12:22:36.489Z,101003.50
2023-05-23T12:25:05.090Z,101007.56
2023-05-23T12:27:36.027Z,101000.13
2023-05-23T12:30:10.692Z,100998.09
2023-05-23T12:32:40.722Z,101009.09
2023-05-23T12:35:13.472Z,100992.34
2023-05-23T12:37:43.135Z,101004.53
2023-05-23T12:40:18.226Z,101009.59
2023-05-23T12:42:53.177Z,101001.97
2023-05-23T12:45:24.999Z,101014.66
2023-05-23T12:47:54.186Z,101017.53
2023-05-23T12:50:22.542Z,101019.25
2023-05-23T12:52:49.524Z,101020.75
2023-05-23T12:55:16.453Z,101031.22
2023-05-23T12:57:43.535Z,101022.41
2023-05-23T13:00:11.843Z,101021.25
2023-05-23T13:02:40.017Z,101029.22
2023-05-23T13:05:07.634Z,101009.22
2023-05-23T13:07:34.642Z,101019.03
2023-05-23T13:10:02.709Z,101014.63
2023-05-23T13:12:29.861Z,101013.56
2023-05-23T13:14:58.074Z,101008.22
2023-05-23T13:17:25.100Z,101006.16
2023-05-23T13:19:52.215Z,101003.16
2023-05-23T13:22:19.175Z,101008.06
2023-05-23T13:24:46.316Z,101007.22
2023-05-23T13:27:13.433Z,101003.50
2023-05-23T13:29:40.423Z,101001.09
2023-05-23T13:32:07.717Z,100989.56
2023-05-23T13:34:37.658Z,100989.41
2023-05-23T13:37:05.916Z,100987.25
2023-05-23T13:39:33.158Z,100984.22
2023-05-23T13:42:00.309Z,101016.53
2023-05-23T13:44:28.687Z,100999.25
2023-05-23T13:46:55.902Z,101001.59
2023-05-23T13:49:23.001Z,101008.53
2023-05-23T13:51:50.296Z,100991.63
2023-05-23T13:54:17.500Z,100994.47
2023-05-23T13:56:44.796Z,101004.81
2023-05-23T13:59:19.230Z,100997.88
2023-05-23T14:01:46.781Z,101005.16
2023-05-23T14:04:14.106Z,101036.94
2023-05-23T14:06:41.090Z,101030.81
2023-05-23T14:09:08.184Z,101023.66
2023-05-23T14:11:35.694Z,101015.88
2023-05-23T14:14:02.721Z,101029.69
2023-05-23T14:16:29.815Z,101020.44
2023-05-23T14:18:56.990Z,101027.19
2023-05-23T14:21:24.278Z,101028.06
2023-05-23T14:23:51.451Z,101035.47
2023-05-23T14:26:18.412Z,101038.78
2023-05-23T14:28:45.465Z,101021.94
2023-05-23T14:31:12.466Z,101017.25
2023-05-23T14:33:39.628Z,101018.59
2023-05-23T14:36:06.866Z,101018.56
2023-05-23T14:38:33.822Z,101019.41
2023-05-23T14:41:00.953Z,101025.34
2023-05-23T14:43:27.993Z,101025.66
2023-05-23T14:45:54.960Z,101022.31
2023-05-23T14:48:22.396Z,101018.59
2023-05-23T14:50:49.364Z,101021.03
2023-05-23T14:53:16.727Z,101017.16
2023-05-23T14:55:43.867Z,101007.53
2023-05-23T14:58:10.888Z,101021.25
2023-05-23T15:00:37.971Z,101006.31
2023-05-23T15:03:05.273Z,101026.13
2023-05-23T15:05:32.283Z,101038.28
2023-05-23T15:07:59.308Z,101019.28
2023-05-23T15:10:26.300Z,101028.06
2023-05-23T15:12:53.203Z,101025.13
2023-05-23T15:15:23.336Z,101015.69
2023-05-23T15:17:51.381Z,101020.59
2023-05-23T15:20:18.363Z,101017.66
2023-05-23T15:22:45.897Z,101016.78
2023-05-23T15:25:12.836Z,101002.78
2023-05-23T15:27:39.958Z,101016.31
2023-05-23T15:30:07.717Z,101019.81
2023-05-23T15:32:34.744Z,100999.31
2023-05-23T15:35:01.949Z,101000.78
2023-05-23T15:37:28.960Z,101013.31
2023-05-23T15:39:56.097Z,101010.50
2023-05-23T15:42:23.102Z,101011.22
2023-05-23T15:44:51.384Z,101015.47
2023-05-23T15:47:18.919Z,101004.81
2023-05-23T15:49:46.512Z,101020.41
2023-05-23T15:52:14.152Z,101016.69
2023-05-23T15:54:41.385Z,101000.81
2023-05-23T15:57:11.592Z,100998.19
2023-05-23T15:59:39.437Z,100999.78
2023-05-23T16:02:07.869Z,100995.34
2023-05-23T16:04:36.303Z,100998.09
2023-05-23T16:07:04.569Z,100990.53
2023-05-23T16:09:32.312Z,100988.00
2023-05-23T16:11:59.408Z,100985.13
2023-05-23T16:14:26.467Z,100997.13
2023-05-23T16:16:53.680Z,101001.75
2023-05-23T16:19:20.774Z,100997.75
2023-05-23T16:21:47.927Z,100998.94
2023-05-23T16:24:17.106Z,100985.66
2023-05-23T16:26:44.182Z,101002.16
2023-05-23T16:29:12.472Z,100992.94
2023-05-23T16:31:39.585Z,100986.88
2023-05-23T16:34:06.565Z,100987.91
2023-05-23T16:36:33.561Z,100999.03
2023-05-23T16:39:00.508Z,100995.00
2023-05-23T16:41:28.249Z,100987.16
2023-05-23T16:43:55.792Z,100992.19
2023-05-23T16:46:22.760Z,100984.06
2023-05-23T16:48:49.957Z,100976.06
2023-05-23T16:51:16.878Z,100973.38
2023-05-23T16:53:43.946Z,100970.41
2023-05-23T16:56:10.929Z,100973.50
2023-05-23T16:58:38.975Z,100972.50
2023-05-23T17:01:07.192Z,100973.66
2023-05-23T17:03:34.862Z,100976.19
2023-05-23T17:06:01.960Z,100971.44
2023-05-23T17:08:29.708Z,100971.44
2023-05-23T17:10:57.672Z,100968.06
2023-05-23T17:13:24.730Z,100968.09
2023-05-23T17:15:51.859Z,100973.13
2023-05-23T17:18:19.052Z,100969.44
2023-05-23T17:20:46.179Z,100960.50
2023-05-23T17:23:13.224Z,100953.09
2023-05-23T17:25:40.681Z,100952.75
2023-05-23T17:28:08.092Z,100949.88
2023-05-23T17:30:35.078Z,100947.59
2023-05-23T17:33:02.172Z,100941.16
2023-05-23T17:35:29.714Z,100944.38
2023-05-23T17:38:00.835Z,100936.28
2023-05-23T17:40:28.101Z,100942.75
2023-05-23T17:42:55.113Z,100946.47
2023-05-23T17:45:22.265Z,100955.78
2023-05-23T17:47:49.253Z,100951.75
2023-05-23T17:50:16.431Z,100955.28
2023-05-23T17:52:44.879Z,100954.78
2023-05-23T17:55:12.044Z,100957.66
2023-05-23T17:57:38.967Z,100958.38
2023-05-23T18:00:07.369Z,100952.31
2023-05-23T18:02:40.129Z,100949.63
2023-05-23T18:05:09.503Z,100956.72
2023-05-23T18:07:38.175Z,100957.09
2023-05-23T18:10:06.757Z,100958.78
2023-05-23T18:12:34.212Z,100966.19
2023-05-23T18:15:01.398Z,100963.47
2023-05-23T18:17:29.037Z,100959.44
2023-05-23T18:19:56.084Z,100959.47
2023-05-23T18:22:23.485Z,100959.13
2023-05-23T18:24:50.824Z,100956.44
2023-05-23T18:27:17.799Z,100962.50
2023-05-23T18:29:45.066Z,100960.16
2023-05-23T18:32:14.293Z,100961.84
2023-05-23T18:34:41.647Z,100965.88
2023-05-23T18:37:08.773Z,100964.88
2023-05-23T18:39:35.738Z,100956.59
2023-05-23T18:42:03.089Z,100960.47
2023-05-23T18:44:30.196Z,100962.16
2023-05-23T18:47:06.679Z,100966.41
2023-05-23T18:49:33.893Z,100973.50
2023-05-23T18:52:00.830Z,100975.72
2023-05-23T18:54:28.022Z,100973.31
2023-05-23T18:56:55.019Z,100971.59
2023-05-23T18:59:22.085Z,100978.75
2023-05-23T19:01:49.057Z,100984.16
2023-05-23T19:04:16.028Z,100989.84
2023-05-23T19:06:43.003Z,100985.63
2023-05-23T19:09:11.717Z,100983.06
2023-05-23T19:11:38.920Z,100981.88
2023-05-23T19:14:06.032Z,100982.38
2023-05-23T19:16:33.543Z,100989.47
2023-05-23T19:19:00.645Z,100994.88
2023-05-23T19:21:28.585Z,100997.94
2023-05-23T19:23:56.633Z,101006.19
2023-05-23T19:26:23.713Z,101006.69
2023-05-23T19:28:51.019Z,101007.69
2023-05-23T19:31:18.635Z,101016.78
2023-05-23T19:33:46.521Z,101018.13
2023-05-23T19:36:13.561Z,101014.91
2023-05-23T19:38:40.562Z,101015.44
2023-05-23T19:41:07.568Z,101013.41
2023-05-23T19:43:34.513Z,101021.19
2023-05-23T19:46:01.800Z,101013.78
2023-05-23T19:48:28.731Z,101017.66
2023-05-23T19:50:55.774Z,101017.84
2023-05-23T19:53:23.165Z,101020.22
2023-05-23T19:55:50.937Z,101023.06
2023-05-23T19:58:18.643Z,101032.03
2023-05-23T20:00:45.597Z,101032.03
2023-05-23T20:03:12.589Z,101035.44
2023-05-23T20:05:40.211Z,101039.50
2023-05-23T20:08:08.188Z,101043.19
2023-05-23T20:10:35.179Z,101054.34
2023-05-23T20:13:02.129Z,101060.41
2023-05-23T20:15:39.549Z,101064.44
2023-05-23T20:18:07.968Z,101071.50
2023-05-23T20:20:35.263Z,101067.75
2023-05-23T20:23:02.248Z,101067.41
2023-05-23T20:25:29.269Z,101074.81
2023-05-23T20:27:59.233Z,101073.81
2023-05-23T20:30:26.956Z,101077.59
2023-05-23T20:32:54.632Z,101074.72
2023-05-23T20:35:22.685Z,101082.81
2023-05-23T20:37:51.867Z,101088.44
2023-05-23T20:40:19.009Z,101092.53
2023-05-23T20:42:46.143Z,101103.03
2023-05-23T20:45:13.194Z,101102.72
2023-05-23T20:47:41.929Z,101102.94
2023-05-23T20:50:10.658Z,101106.31
2023-05-23T20:52:39.567Z,101108.84
2023-05-23T20:55:07.436Z,101112.94
2023-05-23T20:57:36.620Z,101125.81
2023-05-23T21:00:14.025Z,101121.56
2023-05-23T21:02:42.211Z,101127.53
2023-05-23T21:05:10.993Z,101133.75
2023-05-23T21:07:38.275Z,101136.63
2023-05-23T21:10:05.692Z,101138.34
2023-05-23T21:12:32.968Z,101135.47
2023-05-23T21:15:00.169Z,101131.22
2023-05-23T21:17:27.244Z,101135.16
2023-05-23T21:19:54.335Z,101141.38
2023-05-23T21:22:21.369Z,101139.72
2023-05-23T21:24:48.784Z,101141.38
2023-05-23T21:27:15.716Z,101149.34
2023-05-23T21:29:43.105Z,101142.25
2023-05-23T21:32:10.055Z,101143.41
2023-05-23T21:34:37.006Z,101137.00
2023-05-23T21:37:04.158Z,101141.38
2023-05-23T21:39:46.970Z,101150.19
2023-05-23T21:42:18.612Z,101153.91
2023-05-23T21:44:45.736Z,101141.38
2023-05-23T21:47:12.760Z,101150.53
2023-05-23T21:49:40.527Z,101143.75
2023-05-23T21:52:07.815Z,101152.53
2023-05-23T21:54:35.045Z,101151.69
2023-05-23T21:57:02.065Z,101136.94
2023-05-23T21:59:33.057Z,101140.50
2023-05-23T22:02:00.360Z,101140.69
2023-05-23T22:04:27.746Z,101140.69
2023-05-23T22:06:54.817Z,101135.28
2023-05-23T22:09:24.219Z,101138.97
2023-05-23T22:11:51.480Z,101135.28
2023-05-23T22:14:18.658Z,101135.56
2023-05-23T22:16:46.303Z,101133.19
2023-05-23T22:19:18.086Z,101125.38
2023-05-23T22:21:45.804Z,101127.44
2023-05-23T22:24:13.546Z,101132.84
2023-05-23T22:26:40.540Z,101131.13
2023-05-23T22:29:08.061Z,101135.88
2023-05-23T22:31:37.586Z,101127.91
2023-05-23T22:34:04.613Z,101125.84
2023-05-23T22:36:33.568Z,101128.38
2023-05-23T22:39:02.414Z,101124.69
2023-05-23T22:41:29.451Z,101128.53
2023-05-23T22:43:56.510Z,101130.72
2023-05-23T22:46:23.823Z,101129.34
2023-05-23T22:48:52.650Z,101134.44
2023-05-23T22:51:19.983Z,101136.81
2023-05-23T22:53:47.188Z,101129.34
2023-05-23T22:56:15.594Z,101115.81
2023-05-23T22:58:42.646Z,101118.84
2023-05-23T23:01:09.762Z,101119.16
2023-05-23T23:03:36.834Z,101117.47
2023-05-23T23:06:06.484Z,101115.47
2023-05-23T23:08:33.635Z,101104.41
2023-05-23T23:11:00.890Z,101104.38
2023-05-23T23:13:27.844Z,101106.22
2023-05-23T23:15:55.590Z,101099.13
2023-05-23T23:18:22.562Z,101097.75
2023-05-23T23:20:49.627Z,101101.44
2023-05-23T23:23:16.653Z,101096.38
2023-05-23T23:25:45.158Z,101098.91
2023-05-23T23:28:12.462Z,101098.75
2023-05-23T23:30:39.396Z,101100.06
2023-05-23T23:33:06.429Z,101095.38
2023-05-23T23:35:33.385Z,101093.66
2023-05-23T23:38:00.590Z,101088.72
2023-05-23T23:40:27.560Z,101092.44
2023-05-23T23:42:54.507Z,101085.19
2023-05-23T23:45:21.717Z,101082.47
2023-05-23T23:47:48.717Z,101088.03
2023-05-23T23:50:15.925Z,101087.34
2023-05-23T23:52:43.024Z,101083.09
2023-05-23T23:55:10.447Z,101083.41
2023-05-23T23:57:37.368Z,101094.50
